Simpson, Canada
Current Conditions -  °F | °C
As of 9:00 AM on Monday 24 Nov 2014 (Local Time) from CYXE Reporting Station
Snow Showers Snow Showers  
Wind Chill:   Ceiling: 6000
Heat Index: 12°   Visibility: 10mi
Dew Point: 10°   Wind: 9mph
Humidity: 92%   Direction: 220°SW
Pressure: 29.87"   Gusts: NA
Location:  51.45°N, 105.45°W
Report Text: CYXE 241500Z 22008KT 10SM -SHSN FEW020 BKN060 OVC130 M11/M12 A2987 RMK SC2SC4AC2 SLP156
Loading
Personal Weather Stations






























Interactive Weather Map New forecast layout! Learn more

10-Day Weather Forecast

Advertisements
Track Severe Weather on mobile